Time;durP1;ratioP1;P1;durP2;ratioP2;P2;SDS_P1;SDS_P2;PMS_P1;PMS_P2;Temp;Humidity;BMP_temperature;BMP_pressure;BME280_temperature;BME280_humidity;BME280_pressure;Samples;Min_cycle;Max_cycle;Signal;HPM_P1;HPM_P2
2023/01/31 00:08:45;;;;;;;21.95;11.40;;;;;;;;;;21003529;28;20045;-58
2023/01/31 00:19:07;;;;;;;12.43;6.88;;;;;;;;;;21001010;28;20481;-57
2023/01/31 00:29:28;;;;;;;10.63;5.88;;;;;;;;;;21001992;28;20055;-59
2023/01/31 00:39:50;;;;;;;10.20;6.03;;;;;;;;;;20998531;28;20052;-58
2023/01/31 00:50:00;;;;;;;12.43;6.68;;;;;;;;;;20998318;28;20393;-60
2023/01/31 01:00:07;;;;;;;9.40;6.40;;;;;;;;;;20997929;28;20048;-59
2023/01/31 01:10:11;;;;;;;11.45;6.95;;;;;;;;;;20998389;28;20507;-56
2023/01/31 01:20:13;;;;;;;10.63;6.07;;;;;;;;;;20997850;28;20425;-58
2023/01/31 01:30:16;;;;;;;13.38;5.90;;;;;;;;;;20997520;28;20053;-56
2023/01/31 01:40:18;;;;;;;10.07;5.78;;;;;;;;;;20995927;28;20049;-60
2023/01/31 01:50:21;;;;;;;9.45;4.90;;;;;;;;;;21000291;28;20067;-59
2023/01/31 02:00:28;;;;;;;15.48;7.07;;;;;;;;;;21013167;28;20128;-55
2023/01/31 02:10:49;;;;;;;10.75;6.47;;;;;;;;;;21012494;28;20080;-56
2023/01/31 02:20:58;;;;;;;12.43;5.72;;;;;;;;;;21010357;28;20044;-57
2023/01/31 02:31:00;;;;;;;9.77;6.55;;;;;;;;;;21011055;28;20406;-58
2023/01/31 02:41:05;;;;;;;10.02;6.28;;;;;;;;;;21009937;28;20052;-59
2023/01/31 02:51:08;;;;;;;8.90;5.90;;;;;;;;;;21008045;28;20428;-56
2023/01/31 03:01:13;;;;;;;11.85;5.95;;;;;;;;;;21006543;28;20044;-57
2023/01/31 03:11:16;;;;;;;11.05;7.13;;;;;;;;;;21006288;28;20048;-56
2023/01/31 03:21:25;;;;;;;10.90;6.78;;;;;;;;;;21006800;28;20045;-56
2023/01/31 03:31:51;;;;;;;10.07;6.68;;;;;;;;;;21004911;28;20052;-57
2023/01/31 03:42:01;;;;;;;11.30;6.95;;;;;;;;;;20748872;28;20049;-55
2023/01/31 03:52:07;;;;;;;11.38;7.07;;;;;;;;;;20747235;28;20141;-55
2023/01/31 04:02:11;;;;;;;11.77;7.05;;;;;;;;;;20746850;28;20053;-57
2023/01/31 04:12:15;;;;;;;10.80;7.47;;;;;;;;;;20802790;28;20146;-55
2023/01/31 04:22:18;;;;;;;11.77;7.90;;;;;;;;;;21000739;28;20151;-55
2023/01/31 04:32:22;;;;;;;10.90;6.80;;;;;;;;;;21000904;28;20045;-56
2023/01/31 04:42:24;;;;;;;12.85;7.15;;;;;;;;;;21000342;28;20040;-58
2023/01/31 04:52:26;;;;;;;10.85;7.53;;;;;;;;;;20997720;28;20074;-59
2023/01/31 05:02:30;;;;;;;11.93;7.68;;;;;;;;;;20998678;28;20048;-58
2023/01/31 05:12:32;;;;;;;11.13;7.28;;;;;;;;;;20997191;28;20056;-58
2023/01/31 05:22:34;;;;;;;10.77;7.25;;;;;;;;;;20996619;28;20051;-60
2023/01/31 05:32:38;;;;;;;12.52;8.07;;;;;;;;;;20997246;28;20048;-59
2023/01/31 05:42:40;;;;;;;15.75;8.75;;;;;;;;;;20995726;28;20056;-58
2023/01/31 05:52:43;;;;;;;13.88;8.23;;;;;;;;;;20994555;28;20056;-57
2023/01/31 06:02:46;;;;;;;14.60;8.65;;;;;;;;;;20995860;28;20149;-56
2023/01/31 06:12:49;;;;;;;13.15;8.70;;;;;;;;;;20998083;28;20395;-58
2023/01/31 06:22:51;;;;;;;17.33;8.10;;;;;;;;;;20994507;28;20063;-59
2023/01/31 06:32:53;;;;;;;13.13;8.48;;;;;;;;;;20996229;28;20052;-55
2023/01/31 06:42:57;;;;;;;12.27;8.18;;;;;;;;;;21007595;28;20074;-56
2023/01/31 06:52:59;;;;;;;16.02;8.85;;;;;;;;;;21007571;28;20084;-59
2023/01/31 07:03:01;;;;;;;16.23;8.15;;;;;;;;;;21006981;28;20097;-56
2023/01/31 07:13:03;;;;;;;11.75;8.05;;;;;;;;;;21009537;28;20480;-58
2023/01/31 07:23:05;;;;;;;12.85;8.38;;;;;;;;;;21007048;28;20400;-55
2023/01/31 07:33:08;;;;;;;16.40;10.18;;;;;;;;;;21005865;28;20059;-58
2023/01/31 07:43:10;;;;;;;17.70;7.95;;;;;;;;;;21005350;28;20067;-55
2023/01/31 07:53:12;;;;;;;12.85;8.82;;;;;;;;;;21002491;28;20553;-58
2023/01/31 08:03:32;;;;;;;11.45;7.50;;;;;;;;;;21002083;28;20052;-57
2023/01/31 08:13:34;;;;;;;15.68;9.73;;;;;;;;;;21003315;28;20494;-59
2023/01/31 08:23:38;;;;;;;17.45;10.23;;;;;;;;;;21002183;28;20051;-59
2023/01/31 08:33:40;;;;;;;18.67;10.52;;;;;;;;;;21001476;28;20075;-59
2023/01/31 08:43:42;;;;;;;23.30;12.30;;;;;;;;;;20999093;28;20094;-59
2023/01/31 08:53:45;;;;;;;21.88;13.75;;;;;;;;;;20999354;28;20048;-58
2023/01/31 09:03:49;;;;;;;28.10;15.82;;;;;;;;;;21000715;28;20586;-59
2023/01/31 09:13:51;;;;;;;21.58;11.80;;;;;;;;;;21000126;28;20049;-56
2023/01/31 09:23:57;;;;;;;23.80;12.15;;;;;;;;;;20999063;28;20059;-58
2023/01/31 09:33:59;;;;;;;26.48;11.90;;;;;;;;;;20996152;28;20056;-58
2023/01/31 09:44:23;;;;;;;20.95;11.48;;;;;;;;;;20996731;28;20053;-59
2023/01/31 09:54:31;;;;;;;26.58;11.80;;;;;;;;;;20996087;28;20515;-57
2023/01/31 10:04:39;;;;;;;22.27;11.27;;;;;;;;;;20979344;28;20544;-59
2023/01/31 10:14:46;;;;;;;20.65;11.38;;;;;;;;;;21003303;28;20056;-56
2023/01/31 10:24:51;;;;;;;20.30;11.18;;;;;;;;;;21011530;28;20048;-59
2023/01/31 10:34:58;;;;;;;22.60;11.10;;;;;;;;;;21009472;28;20052;-56
2023/01/31 10:45:16;;;;;;;24.13;12.48;;;5.20;54.50;;;;;;21008782;28;20094;-60
2023/01/31 10:55:24;;;;;;;27.10;12.07;;;5.20;54.50;;;;;;21008752;28;20091;-60
2023/01/31 11:05:28;;;;;;;20.63;12.80;;;5.30;54.10;;;;;;21008474;28;20051;-60
2023/01/31 11:15:37;;;;;;;22.57;11.80;;;5.60;54.20;;;;;;21008036;28;20053;-59
2023/01/31 11:25:47;;;;;;;24.88;13.40;;;5.80;52.90;;;;;;21004845;28;20136;-59
2023/01/31 11:35:51;;;;;;;22.92;11.73;;;6.00;52.60;;;;;;20988226;28;20479;-56
2023/01/31 11:45:56;;;;;;;20.75;12.23;;;6.30;51.80;;;;;;21004309;28;20145;-58
2023/01/31 11:56:15;;;;;;;18.33;10.73;;;6.60;51.80;;;;;;21003634;28;20549;-57
2023/01/31 12:06:33;;;;;;;20.00;12.45;;;6.80;50.30;;;;;;21005130;28;20055;-55
2023/01/31 12:16:36;;;;;;;19.95;13.23;;;7.00;50.20;;;;;;20983589;28;20052;-57
2023/01/31 12:26:44;;;;;;;23.85;15.05;;;7.20;49.90;;;;;;21001167;28;20047;-57
2023/01/31 12:37:00;;;;;;;20.02;13.70;;;7.50;49.60;;;;;;20980618;28;20092;-56
2023/01/31 12:47:08;;;;;;;21.33;13.40;;;7.70;48.80;;;;;;20999523;28;20056;-56
2023/01/31 12:57:19;;;;;;;17.35;13.02;;;7.90;47.70;;;;;;20997976;28;20067;-57
2023/01/31 13:07:29;;;;;;;21.13;13.00;;;8.10;47.30;;;;;;20997569;28;20062;-57
2023/01/31 13:17:36;;;;;;;20.30;13.15;;;8.20;47.30;;;;;;20998099;28;20495;-61
2023/01/31 13:27:43;;;;;;;20.60;13.07;;;8.40;45.60;;;;;;20997743;28;20535;-60
2023/01/31 13:37:49;;;;;;;23.15;13.48;;;8.70;45.80;;;;;;20996984;28;20114;-60
2023/01/31 13:48:26;;;;;;;20.15;15.02;;;8.90;45.40;;;;;;21003785;28;20097;-59
2023/01/31 13:58:32;;;;;;;27.35;14.10;;;9.10;45.20;;;;;;21013682;28;20048;-60
2023/01/31 14:08:49;;;;;;;19.70;13.45;;;9.20;44.90;;;;;;21013656;28;20476;-62
2023/01/31 14:18:51;;;;;;;23.83;14.07;;;9.40;44.10;;;;;;21011279;28;20045;-61
2023/01/31 14:28:53;;;;;;;22.02;13.15;;;9.50;44.00;;;;;;20992331;28;20048;-60
2023/01/31 14:39:15;;;;;;;19.52;13.45;;;9.60;43.90;;;;;;20993241;28;20480;-59
2023/01/31 14:49:44;;;;;;;19.42;15.18;;;9.70;42.80;;;;;;21008623;28;20121;-60
2023/01/31 14:59:53;;;;;;;23.80;15.93;;;;;;;;;;21005986;28;20134;-60
2023/01/31 15:09:55;;;;;;;23.95;14.70;;;;;;;;;;21006810;28;20048;-58
2023/01/31 15:20:19;;;;;;;22.65;13.82;;;;;;;;;;21007454;28;20056;-59
2023/01/31 15:30:22;;;;;;;21.88;13.77;;;;;;;;;;21005371;28;20131;-60
2023/01/31 15:40:25;;;;;;;16.80;11.63;;;;;;;;;;21004432;28;20488;-63
2023/01/31 15:50:29;;;;;;;19.90;12.07;;;;;;;;;;21003559;28;20045;-61
2023/01/31 16:00:32;;;;;;;19.00;12.20;;;;;;;;;;21003993;28;20471;-63
2023/01/31 16:10:35;;;;;;;13.50;8.75;;;;;;;;;;20983993;28;20044;-59
2023/01/31 16:20:50;;;;;;;16.05;10.27;;;;;;;;;;21002489;28;20051;-62
2023/01/31 16:30:53;;;;;;;16.48;10.68;;;;;;;;;;21001568;28;20044;-62
2023/01/31 16:40:58;;;;;;;19.38;11.07;;;;;;;;;;20999484;28;20055;-61
2023/01/31 16:51:20;;;;;;;16.75;9.98;;;;;;;;;;20998757;28;20053;-58
2023/01/31 17:01:27;;;;;;;13.85;9.38;;;;;;;;;;20981684;28;20044;-61
2023/01/31 17:11:29;;;;;;;18.52;11.02;;;;;;;;;;20981204;28;20094;-61
2023/01/31 17:21:34;;;;;;;22.13;13.48;;;;;;;;;;20978234;28;20106;-61
2023/01/31 17:31:37;;;;;;;19.60;11.27;;;;;;;;;;20996945;28;20052;-61
2023/01/31 17:41:40;;;;;;;16.02;9.65;;;;;;;;;;20995146;28;20044;-61
2023/01/31 17:51:42;;;;;;;17.38;9.32;;;;;;;;;;20994297;28;20057;-61
2023/01/31 18:01:44;;;;;;;21.48;11.38;;;;;;;;;;20978046;28;20048;-60
2023/01/31 18:11:46;;;;;;;15.38;9.63;;;;;;;;;;20993831;28;20079;-61
2023/01/31 18:21:48;;;;;;;21.75;12.63;;;;;;;;;;20994728;28;20083;-62
2023/01/31 18:31:54;;;;;;;23.30;12.95;;;;;;;;;;20997544;28;20049;-59
2023/01/31 18:41:56;;;;;;;22.67;13.85;;;;;;;;;;21010193;28;20045;-60
2023/01/31 18:51:57;;;;;;;24.15;13.77;;;;;;;;;;21008001;28;20075;-60
2023/01/31 19:02:00;;;;;;;27.08;12.40;;;;;;;;;;21008141;28;20045;-62
2023/01/31 19:12:02;;;;;;;27.85;17.73;;;;;;;;;;21008227;28;20503;-61
2023/01/31 19:22:04;;;;;;;30.23;16.08;;;;;;;;;;21006341;28;20083;-64
2023/01/31 19:32:06;;;;;;;32.38;17.67;;;;;;;;;;21006437;28;20052;-60
2023/01/31 19:42:08;;;;;;;21.45;12.30;;;;;;;;;;21005583;28;20476;-58
2023/01/31 19:52:11;;;;;;;22.42;11.98;;;7.90;51.60;;;;;;21003289;28;20057;-60
2023/01/31 20:02:13;;;;;;;26.33;14.60;;;7.80;52.00;;;;;;21003850;28;20051;-62
2023/01/31 20:12:14;;;;;;;23.25;12.20;;;7.70;52.20;;;;;;21001660;28;20141;-63
2023/01/31 20:22:20;;;;;;;25.67;15.93;;;7.50;52.70;;;;;;21002178;28;20072;-62
2023/01/31 20:32:22;;;;;;;20.40;11.20;;;7.30;53.60;;;;;;21001829;28;20400;-62
2023/01/31 20:42:25;;;;;;;39.63;20.42;;;7.10;54.00;;;;;;20999601;28;20293;-61
2023/01/31 20:52:27;;;;;;;18.13;10.35;;;6.90;54.40;;;;;;21003212;28;20388;-62
2023/01/31 21:02:29;;;;;;;23.02;12.60;;;6.80;54.60;;;;;;20998503;28;20052;-56
2023/01/31 21:12:31;;;;;;;19.42;12.02;;;6.70;55.20;;;;;;20998550;28;20139;-56
2023/01/31 21:22:33;;;;;;;19.50;10.10;;;6.40;55.70;;;;;;20998256;28;20040;-56
2023/01/31 21:32:35;;;;;;;22.70;10.25;;;6.20;56.40;;;;;;20998023;28;20081;-56
2023/01/31 21:42:38;;;;;;;17.13;9.48;;;6.10;57.10;;;;;;20996363;28;20040;-57
2023/01/31 21:52:40;;;;;;;15.38;9.82;;;5.80;57.50;;;;;;20995206;28;20060;-60
2023/01/31 22:02:41;;;;;;;14.52;10.05;;;5.60;57.70;;;;;;20977266;28;20044;-60
2023/01/31 22:12:45;;;;;;;16.25;9.32;;;5.30;58.40;;;;;;21008461;28;20165;-55
2023/01/31 22:22:47;;;;;;;14.55;9.07;;;5.10;58.90;;;;;;20992067;28;20048;-58
2023/01/31 22:32:50;;;;;;;15.90;10.20;;;5.00;59.40;;;;;;21011127;28;20075;-61
2023/01/31 22:42:52;;;;;;;19.45;10.50;;;4.80;59.80;;;;;;21009531;28;20084;-59
2023/01/31 22:52:53;;;;;;;15.82;10.30;;;4.70;60.30;;;;;;21008525;28;20079;-59
2023/01/31 23:02:56;;;;;;;17.17;9.75;;;4.60;60.60;;;;;;21012054;28;20045;-57
2023/01/31 23:13:14;;;;;;;20.77;11.02;;;4.50;60.80;;;;;;21069922;27;20487;-60
2023/01/31 23:23:16;;;;;;;18.42;10.95;;;4.60;60.90;;;;;;21068932;28;20055;-58
2023/01/31 23:33:18;;;;;;;22.08;11.95;;;4.30;61.70;;;;;;21068688;28;20048;-59
2023/01/31 23:43:22;;;;;;;18.95;11.05;;;;;;;;;;21067089;28;20040;-63
2023/01/31 23:53:24;;;;;;;18.17;10.27;;;;;;;;;;21066982;28;20049;-59
